Hattiesburg Bobby L Chain Municipal Airport
KHBG : now visible

Airfield :











YOU CAN JOIN US ON...

 
LOGIN :

Register | Disclaimer

   EN    FR    IT 

 









Legend :    VFR   Marginal VFR   IFR   Intensive IFR   Very Intensive IFR
Visi :
Ceiling :
>= 8 km
>= 3000ft
5 to 8 km
1000 to 3000 ft
1500m to 5 km
500 to 1000 ft
800 to 1500m
200 to 500 ft
< 800m
< 200 ft
Symbols :   Thunderstorms  Fog  Heavy snow  Heavy precipitations  Wind > 20 kt






- Airport Elevation : 151 ft


KHBG - Hattiesburg Bobby L Chain Municipal

CURRENT METAR :
  • 241721Z AUTO 18008KT 10SM VCTS -RA FEW023 BKN030 BKN046 28/23 A2995 RMK AO2 LTG DSNT NE AND E AND W RAB15 P0000 T02780233

EXPIRED METARs :
  • 241717Z AUTO 17011KT 10SM -RA BKN028 BKN050 28/23 A2995 RMK AO2 LTG DSNT NE AND E RAB15 P0000 T02780228
  • 241703Z AUTO 17011G18KT 10SM VCTS FEW023 BKN030 BKN045 29/23 A2996 RMK AO2 T02890233
  • 241653Z AUTO 17009G19KT 10SM SCT023 BKN028 BKN034 28/23 A2996 RMK AO2 LTG DSNT S AND W RAB05E14 SLP143 P0000 T02830233
  • 241553Z AUTO 14006KT 10SM BKN017 BKN021 26/23 A2998 RMK AO2 SLP149 T02610228
  • 241526Z AUTO 13005KT 10SM BKN015 26/23 A2999 RMK AO2 T02610228
  • 241502Z AUTO 12006KT 10SM SCT012 25/22 A2998 RMK AO2 T02500222
  • 241453Z AUTO 11007KT 10SM BKN009 BKN014 25/22 A2998 RMK AO2 CIG 007V012 SLP150 T02500222 51004

TAF KHBG
Valid from the 24 at 18:00 until the 25 at 18:00 UTC


241727Z 2418/2518 17009G19KT P6SM SCT023 BKN028 BKN035
FM242200 16010KT P6SM BKN040
FM250600 16010KT P6SM BKN012
FM251200 14005KT 5SM SHRA VCSH BKN008
FM251400 15009KT 6SM BR VCSH BKN015
FM251700 15010G20KT 6SM BR VCSH BKN025
KZHU FIR / North America



MET'MAP, your aeronautical weather chart ! - Copyright ORBIFLY December 2007 - Disclaimer

ORBIFLY MET'MAP TEAM :

Programming & Development : Alexandra Zaïnal
Original concept : Baudouin d'Aumeries
Technical & hardware support : Manuel Goepfert
Assistance : Marc-Olivier Méhu

Contact : metmap@orbifly.com




SOURCES & CREDITS :

   NOAA       Earth
Advisory